Latest Weather Observations for Moorabbin Airport

IDV60801

Issued at 4:02 am EDT Sunday 2 October 2016 (issued every 30 minutes, with the page automatically refreshed every 10 minutes)

About weather observations | Map of weather stations | Latest weather observations for VIC | Other Formats
Station Details ID: 086077 Name: MOORABBIN AIRPORT Lat: -37.98 Lon: 145.10 Height: 12.1 m
Data from the previous 72 hours. | See also: Recent months at Moorabbin Airport
Date/Time
EDT
Temp
°C
App
Temp
°C
Dew
Point
°C
Rel
Hum
%
Delta-T
°C
Wind Press
QNH
hPa
Press
MSL
hPa
Rain since
9am
mm
Dir  Spd
km/h
Gust
km/h
Spd
kts
Gust
kts
02/04:00am 11.6 7.5 6.3 70 2.5 N 17 24 9 13 1005.5 1005.5 0.0
02/03:30am 10.7 7.0 6.3 74 2.1 N 15 20 8 11 1006.0 1006.0 0.0
02/03:00am 10.1 6.6 5.3 72 2.2 N 13 17 7 9 1006.3 1006.3 0.0
02/01:30am 11.0 7.2 5.7 70 2.4 N 15 19 8 10 1006.6 1006.6 0.0
02/01:00am 11.2 8.2 5.9 70 2.5 N 11 15 6 8 1006.9 1006.9 0.0
02/12:30am 11.2 7.0 5.7 69 2.5 N 17 20 9 11 1006.7 1006.7 0.0
02/12:00am 11.5 6.9 5.8 68 2.7 N 19 30 10 16 1006.9 1006.9 0.0
 
Date/Time
EDT
Temp
°C
App
Temp
°C
Dew
Point
°C
Rel
Hum
%
Delta-T
°C
Wind Press
QNH
hPa
Press
MSL
hPa
Rain since
9am
mm
Dir  Spd
km/h
Gust
km/h
Spd
kts
Gust
kts
01/11:30pm 12.1 7.5 6.4 68 2.7 N 20 28 11 15 1007.0 1007.0 0.0
01/11:00pm 11.6 7.5 6.3 70 2.5 N 17 20 9 11 1007.3 1007.3 0.0
01/10:30pm 12.5 8.0 6.1 65 3.0 N 19 22 10 12 1007.7 1007.7 0.0
01/10:00pm 12.8 9.1 6.2 64 3.1 N 15 20 8 11 1008.0 1008.0 0.0
01/09:30pm 13.3 8.6 5.9 61 3.5 NNW 20 28 11 15 1008.0 1008.0 0.0
01/09:00pm 13.8 10.1 6.2 60 3.6 NNW 15 22 8 12 1008.0 1008.0 0.0
01/08:30pm 14.0 9.9 6.1 59 3.8 NNW 17 24 9 13 1007.6 1007.6 0.0
01/08:00pm 14.1 9.4 6.0 58 3.9 NNW 20 26 11 14 1007.2 1007.2 0.0
01/07:30pm 14.2 9.7 6.8 61 3.6 NNW 20 32 11 17 1006.8 1006.8 0.0
01/07:00pm 14.8 9.3 6.1 56 4.2 NNW 24 35 13 19 1006.0 1006.0 0.0
01/06:30pm 15.3 10.7 6.6 56 4.2 NNW 20 33 11 18 1005.6 1005.6 0.0
01/06:00pm 16.1 12.3 7.6 57 4.3 NW 17 30 9 16 1005.3 1005.3 0.0
01/05:30pm 15.0 12.3 8.9 67 3.1 W 13 17 7 9 1005.3 1005.3 0.0
01/05:00pm 15.0 11.3 9.4 69 2.9 WSW 19 26 10 14 1005.0 1005.0 0.0
01/04:30pm 16.1 12.2 8.6 61 3.8 W 19 28 10 15 1004.5 1004.5 0.0
01/04:00pm 16.2 11.7 8.4 60 4.0 W 22 32 12 17 1004.2 1004.2 0.0
01/03:30pm 16.2 11.7 8.4 60 4.0 W 22 32 12 17 1004.2 1004.2 0.0
01/03:00pm 15.9 11.0 8.4 61 3.8 WNW 24 33 13 18 1003.9 1003.9 0.0
01/02:30pm 16.0 11.6 9.0 63 3.6 WNW 22 33 12 18 1003.7 1003.7 0.0
01/02:00pm 16.0 10.9 9.2 64 3.5 WNW 26 37 14 20 1003.5 1003.5 0.0
01/01:30pm 15.9 11.7 9.6 66 3.3 WNW 22 33 12 18 1003.3 1003.3 0.0
01/01:00pm 16.2 11.2 9.6 65 3.5 WNW 26 39 14 21 1003.2 1003.2 0.0
01/12:30pm 16.2 10.9 9.8 66 3.3 WNW 28 44 15 24 1003.1 1003.1 0.0
01/12:00pm 15.9 11.0 10.0 68 3.1 WNW 26 39 14 21 1003.1 1003.1 0.0
01/11:42am 15.2 9.8 9.6 69 2.9 W 28 46 15 25 1003.1 1003.1 0.0
01/11:30am 15.4 9.8 10.2 71 2.7 W 30 39 16 21 1003.1 1003.1 0.0
01/11:00am 14.7 9.2 10.5 76 2.2 W 30 43 16 23 1003.1 1003.1 0.0
01/10:55am 14.4 9.4 10.8 79 1.9 W 28 44 15 24 1003.0 1003.0 0.0
01/10:32am 13.3 10.5 11.4 88 1.0 NW 17 20 9 11 1003.0 1003.0 0.0
01/10:30am 13.3 10.5 11.4 88 1.0 NW 17 20 9 11 1003.0 1003.0 0.0
01/10:06am 12.9 8.6 10.6 86 1.2 WNW 24 33 13 18 1003.0 1003.0 0.0
01/10:00am 13.0 8.6 10.5 85 1.3 WNW 24 39 13 21 1002.9 1002.9 0.0
01/09:30am 12.8 9.2 10.5 86 1.2 NW 20 28 11 15 1002.7 1002.7 0.0
01/09:00am 12.5 7.2 10.0 85 1.3 WNW 28 46 15 25 1002.5 1002.5 1.2
01/08:59am 12.4 7.1 10.0 85 1.2 WNW 28 46 15 25 1002.5 1002.5 1.2
01/08:41am 12.6 8.9 10.1 85 1.3 WNW 20 30 11 16 1002.2 1002.2 1.0
01/08:30am 12.6 9.4 10.1 85 1.3 NW 17 28 9 15 1002.0 1002.0 0.8
01/08:26am 12.6 9.4 10.1 85 1.3 WNW 17 26 9 14 1001.9 1001.9 0.8
01/08:09am 12.5 8.9 9.9 84 1.3 WNW 19 26 10 14 1001.8 1001.8 0.8
01/08:00am 12.9 10.1 10.1 83 1.4 WNW 15 20 8 11 1001.7 1001.7 0.8
01/07:30am 12.9 9.8 10.3 84 1.3 WNW 17 26 9 14 1001.2 1001.2 0.8
01/07:00am 12.7 9.2 10.2 85 1.3 NW 19 28 10 15 1000.6 1000.6 0.8
01/06:30am 12.8 9.3 10.2 84 1.3 WNW 19 30 10 16 1000.2 1000.2 0.8
01/06:00am 12.7 9.6 10.4 86 1.2 NW 17 28 9 15 999.5 999.5 0.8
01/05:59am 12.6 9.6 10.5 87 1.1 WNW 17 26 9 14 999.5 999.5 0.8
01/05:45am 12.5 9.0 10.2 86 1.2 WNW 19 32 10 17 999.3 999.3 0.8
01/05:30am 12.5 9.8 10.4 87 1.1 WNW 15 24 8 13 998.9 998.9 0.6
01/05:00am 12.4 9.2 10.0 85 1.2 NW 17 22 9 12 998.5 998.5 0.4
01/04:54am 12.3 9.5 9.9 85 1.2 NW 15 20 8 11 998.4 998.4 0.4
01/04:40am 12.5 9.1 9.3 81 1.6 NW 17 20 9 11 998.1 998.1 0.4
01/04:30am 13.0 9.3 9.6 80 1.7 NW 19 30 10 16 997.9 997.9 0.4
01/04:00am 13.1 9.7 9.2 77 2.0 NW 17 26 9 14 997.5 997.5 0.4
01/03:30am 13.1 9.2 8.6 74 2.2 NW 19 26 10 14 997.2 997.2 0.4
01/03:00am 12.5 9.1 9.0 79 1.8 NNW 17 22 9 12 996.9 996.9 0.4
01/02:30am 12.3 7.9 8.8 79 1.7 NNW 22 28 12 15 996.7 996.7 0.4
01/02:00am 12.2 8.1 8.7 79 1.8 NNW 20 28 11 15 996.9 996.9 0.4
01/01:30am 12.7 7.8 8.4 75 2.1 NNW 24 35 13 19 996.9 996.9 0.4
01/01:00am 11.9 7.8 8.7 81 1.6 NNW 20 26 11 14 997.0 997.0 0.4
01/12:30am 12.4 7.8 8.1 75 2.1 NNW 22 30 12 16 996.9 996.9 0.0
01/12:00am 12.3 8.0 7.8 74 2.2 N 20 28 11 15 996.7 996.7 0.0
 
Date/Time
EDT
Temp
°C
App
Temp
°C
Dew
Point
°C
Rel
Hum
%
Delta-T
°C
Wind Press
QNH
hPa
Press
MSL
hPa
Rain since
9am
mm
Dir  Spd
km/h
Gust
km/h
Spd
kts
Gust
kts
30/11:30pm 12.2 8.3 8.5 78 1.8 N 19 22 10 12 996.9 996.9 0.0
30/11:00pm 12.1 9.0 8.8 80 1.7 N 15 19 8 10 996.9 996.9 0.0
30/10:30pm 12.5 9.8 9.0 79 1.8 N 13 17 7 9 997.4 997.4 0.0
30/10:00pm 12.3 10.8 9.1 81 1.6 NW 7 9 4 5 997.7 997.7 0.0
30/09:30pm 12.8 11.0 9.3 79 1.8 NNW 9 11 5 6 997.5 997.5 0.0
30/09:00pm 12.8 10.5 8.9 77 2.0 WNW 11 15 6 8 997.6 997.6 0.0
30/08:30pm 12.9 10.8 8.2 73 2.3 W 9 13 5 7 997.6 997.6 0.0
30/08:00pm 12.9 10.7 7.8 71 2.5 WNW 9 11 5 6 997.1 997.1 0.0
30/07:30pm 13.0 11.9 8.3 73 2.3 NW 4 9 2 5 996.6 996.6 0.0
30/07:00pm 13.0 10.8 7.9 71 2.5 W 9 13 5 7 996.2 996.2 0.0
30/06:30pm 12.9 10.3 7.8 71 2.5 SW 11 13 6 7 995.8 995.8 0.0
30/06:00pm 13.1 10.2 8.0 71 2.5 WSW 13 17 7 9 995.6 995.6 0.0
30/05:30pm 13.3 10.8 8.0 70 2.6 WSW 11 15 6 8 995.3 995.3 0.0
30/05:00pm 13.7 11.9 7.9 68 2.9 SW 7 9 4 5 994.7 994.7 0.0
30/04:30pm 13.3 9.9 7.7 69 2.8 SW 15 19 8 10 994.5 994.5 0.0
30/04:00pm 14.1 10.6 7.2 63 3.4 SW 15 20 8 11 994.0 994.0 0.0
30/03:30pm 14.8 11.4 7.6 62 3.6 SW 15 20 8 11 993.6 993.6 0.0
30/03:00pm 15.2 11.8 7.7 61 3.8 SSW 15 19 8 10 993.1 993.1 0.0
30/02:30pm 14.7 10.2 6.0 56 4.2 SW 19 28 10 15 993.2 993.2 0.0
30/02:00pm 14.8 10.4 6.6 58 4.0 SW 19 26 10 14 992.9 992.9 0.0
30/01:30pm 15.0 10.9 6.3 56 4.2 WSW 17 22 9 12 992.8 992.8 0.0
30/01:00pm 14.9 10.9 5.1 52 4.7 W 15 24 8 13 992.6 992.6 0.0
30/12:30pm 15.3 10.8 6.1 54 4.4 W 19 26 10 14 992.4 992.4 0.0
30/12:00pm 14.9 11.6 6.5 57 4.1 NW 13 19 7 10 992.2 992.2 0.0
30/11:30am 14.4 10.9 7.0 61 3.6 NNW 15 22 8 12 992.2 992.2 0.0
30/11:00am 12.7 8.6 6.1 64 3.2 NW 17 22 9 12 992.5 992.5 0.0
30/10:30am 12.4 9.2 6.7 68 2.7 WNW 13 20 7 11 992.6 992.6 0.0
30/10:00am 12.1 8.0 6.2 67 2.8 WNW 17 20 9 11 992.4 992.4 0.0
30/09:30am 12.1 9.6 6.4 68 2.7 NW 9 17 5 9 992.2 992.2 0.0
30/09:00am 11.9 8.3 6.6 70 2.5 N 15 20 8 11 991.7 991.7 2.8
30/08:30am 12.3 9.8 8.0 75 2.1 N 11 17 6 9 991.3 991.3 2.8
30/08:00am 11.5 7.7 7.6 77 1.9 NNW 17 22 9 12 990.7 990.7 2.8
30/07:30am 10.8 8.4 8.7 87 1.0 N 11 19 6 10 990.3 990.3 2.8
30/07:00am 9.9 8.2 8.2 89 0.8 N 7 9 4 5 990.2 990.2 2.8
30/06:30am 9.5 7.8 7.6 88 0.9 NNE 6 7 3 4 989.9 989.9 2.8
30/06:20am 9.3 7.6 7.4 88 0.9 ENE 6 7 3 4 989.8 989.8 2.8
30/06:00am 9.2 7.4 7.2 87 1.0 NE 6 7 3 4 989.6 989.6 2.8
30/05:57am 9.1 7.3 7.1 87 0.9 NE 6 7 3 4 989.6 989.6 2.8
30/05:30am 8.9 6.8 6.5 85 1.1 ENE 7 9 4 5 989.1 989.1 2.8
30/05:00am 9.7 7.9 7.1 84 1.2 NNE 6 7 3 4 988.9 988.9 2.8
30/04:30am 9.7 6.9 7.1 84 1.2 E 11 13 6 7 988.8 988.8 2.8
30/04:00am 9.5 7.1 6.8 83 1.3 E 9 11 5 6 988.6 988.6 2.8
30/03:30am 9.3 6.4 6.4 82 1.3 E 11 15 6 8 988.3 988.3 2.8
30/03:00am 10.2 6.3 6.9 80 1.6 E 17 20 9 11 988.3 988.3 2.8
30/02:30am 10.2 5.9 7.1 81 1.5 E 19 24 10 13 988.4 988.4 2.8
30/02:00am 10.1 5.7 7.2 82 1.4 E 20 24 11 13 988.6 988.6 2.8
30/01:30am 10.0 5.8 7.4 84 1.2 E 19 24 10 13 988.8 988.8 2.8
30/01:00am 9.5 6.0 7.4 87 1.0 E 15 19 8 10 989.0 989.0 2.8
30/12:30am 9.4 5.9 7.2 86 1.0 ENE 15 20 8 11 988.7 988.7 2.6
30/12:00am 9.5 5.6 6.9 84 1.2 ENE 17 24 9 13 988.7 988.7 2.0
 
Date/Time
EDT
Temp
°C
App
Temp
°C
Dew
Point
°C
Rel
Hum
%
Delta-T
°C
Wind Press
QNH
hPa
Press
MSL
hPa
Rain since
9am
mm
Dir  Spd
km/h
Gust
km/h
Spd
kts
Gust
kts
29/11:30pm 9.8 5.2 6.3 79 1.6 NE 20 28 11 15 989.2 989.2 1.2
29/11:00pm 10.4 5.6 5.8 73 2.1 NE 20 28 11 15 989.2 989.2 0.4
29/10:30pm 10.5 5.7 5.7 72 2.2 NE 20 35 11 19 989.5 989.5 0.4
29/10:00pm 9.6 5.3 5.2 74 2.0 NE 17 20 9 11 989.6 989.6 0.4
29/09:30pm 9.7 5.4 5.3 74 2.0 NE 17 20 9 11 990.0 990.0 0.4
29/09:00pm 9.8 4.9 5.2 73 2.1 NE 20 26 11 14 990.3 990.3 0.4
29/08:30pm 10.3 5.1 5.5 72 2.2 NE 22 30 12 16 990.7 990.7 0.4
29/08:00pm 10.4 4.8 5.6 72 2.2 NE 24 33 13 18 990.9 990.9 0.4
29/07:30pm 10.8 6.4 6.7 76 1.9 NE 19 24 10 13 990.8 990.8 0.4
29/07:00pm 10.7 7.2 7.0 78 1.8 NE 15 20 8 11 990.6 990.6 0.4
29/06:30pm 10.1 5.8 6.8 80 1.6 N 19 28 10 15 990.2 990.2 0.4
29/06:00pm 11.6 6.1 6.1 69 2.6 NNE 24 37 13 20 990.1 990.1 0.2
29/05:30pm 12.3 7.6 6.1 66 2.9 NNE 20 28 11 15 989.6 989.6 0.2
29/05:00pm 12.3 8.0 7.0 70 2.6 NE 19 24 10 13 989.3 989.3 0.2
29/04:53pm 11.8 5.7 6.5 70 2.5 NNE 28 44 15 24 989.2 989.2 0.2
29/04:46pm 11.5 4.5 5.8 68 2.7 N 32 56 17 30 989.3 989.3 0.2
29/04:43pm 12.2 5.8 5.4 63 3.2 NNW 28 56 15 30 989.2 989.2 0.2
29/04:30pm 13.5 7.6 4.1 53 4.3 NNW 24 41 13 22 988.8 988.8 0.2
29/04:00pm 15.9 8.7 3.0 42 5.9 N 30 39 16 21 987.9 987.9 0.0
29/03:30pm 16.0 8.9 3.4 43 5.8 N 30 41 16 22 988.0 988.0 0.0
29/03:00pm 15.7 7.7 1.8 39 6.2 NNW 33 50 18 27 988.0 988.0 0.0
29/02:55pm 15.8 8.0 1.5 38 6.3 NNW 32 50 17 27 987.9 987.9 0.0
29/02:30pm 15.6 7.8 2.7 42 5.8 NNW 33 46 18 25 988.1 988.1 0.0
29/02:18pm 16.0 8.4 2.8 41 6.0 NNW 32 50 17 27 988.3 988.3 0.0
29/02:00pm 16.1 9.1 3.9 44 5.7 NNW 30 39 16 21 988.4 988.4 0.0
29/01:30pm 15.5 8.0 3.3 44 5.6 N 32 50 17 27 988.7 988.7 0.0
29/01:17pm 16.3 9.4 4.4 45 5.6 N 30 50 16 27 988.9 988.9 0.0
29/01:00pm 16.5 9.3 4.9 46 5.6 NNW 32 41 17 22 989.1 989.1 0.0
29/12:35pm 15.6 8.6 4.3 47 5.3 NNW 30 48 16 26 989.5 989.5 0.0
29/12:30pm 15.1 7.3 2.0 41 5.8 NNW 32 48 17 26 989.4 989.4 0.0
29/12:00pm 15.5 7.5 3.9 46 5.4 NNW 35 50 19 27 989.5 989.5 0.0
29/11:30am 14.7 8.1 4.4 50 4.8 NNW 28 52 15 28 989.5 989.5 0.0
29/11:28am 15.2 8.7 4.6 49 4.9 NNW 28 52 15 28 989.4 989.4 0.0
29/11:00am 15.1 9.9 5.3 52 4.7 NNW 22 32 12 17 989.4 989.4 0.0
29/10:30am 14.9 7.8 5.7 54 4.4 NNW 32 44 17 24 989.5 989.5 0.0
29/10:00am 13.7 9.3 7.5 66 3.1 NNW 20 28 11 15 989.4 989.4 0.0
29/09:30am 13.2 7.2 7.2 67 2.9 NNW 28 41 15 22 989.3 989.3 0.0
29/09:00am 12.7 7.6 7.6 71 2.5 NNW 24 35 13 19 989.2 989.2 2.0
29/08:30am 13.8 8.9 8.6 71 2.6 NNW 24 32 13 17 988.8 988.8 2.0
29/08:00am 13.9 10.6 9.5 75 2.3 N 17 24 9 13 988.9 988.9 2.0
29/07:30am 13.7 8.6 9.2 74 2.3 N 26 33 14 18 988.6 988.6 2.0
29/07:00am 13.5 9.0 9.9 79 1.9 NNE 24 32 13 17 988.1 988.1 2.0
29/06:30am 13.6 10.3 10.8 83 1.5 NNE 19 24 10 13 988.7 988.7 2.0
29/06:00am 13.5 8.8 10.5 82 1.6 NNE 26 37 14 20 988.0 988.0 2.0
29/05:30am 13.6 8.1 10.4 81 1.7 N 30 41 16 22 988.2 988.2 2.0
29/05:00am 13.5 7.6 10.5 82 1.6 NNE 32 39 17 21 988.0 988.0 2.0
29/04:30am 13.2 7.7 10.4 83 1.5 NNE 30 44 16 24 988.3 988.3 2.0
29/04:00am 13.4 7.5 10.4 82 1.6 NNE 32 44 17 24 988.5 988.5 1.6
29/03:30am 13.3 8.1 10.3 82 1.6 NNE 28 39 15 21 989.0 989.0 1.2

Other Formats:

Comma delimited format used in spreadsheet applications
http://www.bom.gov.au/fwo/IDV60801/IDV60801.94870.axf

JavaScript Object Notation format (JSON) in row-major order
http://www.bom.gov.au/fwo/IDV60801/IDV60801.94870.json